Time;durP1;ratioP1;P1;durP2;ratioP2;P2;SDS_P1;SDS_P2;PMS_P1;PMS_P2;Temp;Humidity;BMP_temperature;BMP_pressure;BME280_temperature;BME280_humidity;BME280_pressure;Samples;Min_cycle;Max_cycle;Signal;HPM_P1;HPM_P2
2022/07/27 00:00:23;;;;;;;2.33;1.13;;;17.10;99.90;;;;;;5031047;28;20186;-34
2022/07/27 00:02:50;;;;;;;9.00;1.93;;;17.10;99.90;;;;;;5032484;28;20197;-34
2022/07/27 00:05:16;;;;;;;1.90;1.00;;;17.00;99.90;;;;;;5032142;28;20445;-34
2022/07/27 00:07:41;;;;;;;7.40;1.43;;;17.10;99.90;;;;;;5035659;28;20966;-34
2022/07/27 00:10:07;;;;;;;2.43;1.20;;;17.00;99.90;;;;;;5038588;28;20492;-34
2022/07/27 00:12:33;;;;;;;1.67;1.00;;;17.00;99.90;;;;;;5052274;28;20205;-34
2022/07/27 00:14:59;;;;;;;3.10;1.13;;;17.00;99.90;;;;;;5051945;28;20436;-34
2022/07/27 00:17:26;;;;;;;3.13;1.10;;;16.90;99.90;;;;;;5051607;28;20548;-34
2022/07/27 00:19:51;;;;;;;2.60;1.30;;;16.80;99.90;;;;;;5050413;28;20186;-34
2022/07/27 00:22:17;;;;;;;2.23;1.27;;;16.70;99.90;;;;;;5053564;28;20455;-34
2022/07/27 00:24:44;;;;;;;5.27;1.50;;;16.60;99.90;;;;;;5031970;28;20654;-34
2022/07/27 00:27:09;;;;;;;2.87;1.10;;;16.60;99.90;;;;;;5031490;28;20236;-34
2022/07/27 00:29:35;;;;;;;2.43;1.30;;;16.50;99.90;;;;;;5031816;28;20465;-34
2022/07/27 00:32:01;;;;;;;2.90;1.80;;;16.50;99.90;;;;;;5031830;28;20425;-34
2022/07/27 00:34:27;;;;;;;2.97;0.97;;;16.50;99.90;;;;;;5031795;28;20183;-33
2022/07/27 00:36:53;;;;;;;3.00;1.27;;;16.40;99.90;;;;;;5029807;28;20190;-34
2022/07/27 00:39:18;;;;;;;3.47;1.20;;;16.40;99.90;;;;;;5031181;28;20440;-34
2022/07/27 00:41:45;;;;;;;2.90;1.33;;;16.40;99.90;;;;;;5031788;28;20613;-34
2022/07/27 00:44:11;;;;;;;3.67;1.30;;;16.40;99.90;;;;;;5031630;28;20179;-34
2022/07/27 00:46:37;;;;;;;3.67;1.43;;;16.40;99.90;;;;;;5031140;28;20429;-33
2022/07/27 00:49:04;;;;;;;3.87;1.53;;;16.30;99.90;;;;;;5031213;28;20453;-33
2022/07/27 00:51:31;;;;;;;6.13;2.00;;;16.30;99.90;;;;;;5031608;28;20473;-34
2022/07/27 00:53:57;;;;;;;3.10;1.77;;;16.30;99.90;;;;;;5031256;28;20472;-34
2022/07/27 00:56:23;;;;;;;1.70;1.20;;;16.30;99.90;;;;;;5031412;28;20441;-33
2022/07/27 00:58:52;;;;;;;8.30;1.57;;;16.30;99.90;;;;;;5030637;28;20456;-34
2022/07/27 01:01:19;;;;;;;2.30;1.00;;;16.30;99.90;;;;;;5031398;28;20944;-34
2022/07/27 01:03:45;;;;;;;3.83;1.37;;;16.30;99.90;;;;;;5030919;28;20639;-33
2022/07/27 01:06:12;;;;;;;3.27;1.23;;;16.30;99.90;;;;;;5031235;28;20536;-34
2022/07/27 01:08:37;;;;;;;2.90;1.20;;;16.30;99.90;;;;;;5039602;28;21063;-34
2022/07/27 01:11:04;;;;;;;3.73;1.00;;;16.30;99.90;;;;;;5040490;28;20416;-34
2022/07/27 01:13:30;;;;;;;1.50;1.17;;;16.20;99.90;;;;;;5050822;28;20196;-34
2022/07/27 01:15:57;;;;;;;5.40;1.70;;;16.20;99.90;;;;;;5050935;28;20424;-34
2022/07/27 01:18:30;;;;;;;2.00;1.20;;;16.30;99.90;;;;;;5048720;28;20562;-34
2022/07/27 01:20:57;;;;;;;3.10;1.30;;;16.20;99.90;;;;;;5057268;28;20810;-34
2022/07/27 01:23:24;;;;;;;3.57;1.57;;;16.20;99.90;;;;;;5036107;28;20421;-34
2022/07/27 01:25:50;;;;;;;3.43;1.50;;;16.20;99.90;;;;;;5030774;28;20413;-34
2022/07/27 01:28:15;;;;;;;2.03;1.30;;;16.20;99.90;;;;;;5030026;28;20463;-34
2022/07/27 01:30:41;;;;;;;2.90;1.37;;;16.20;99.90;;;;;;5030529;28;21072;-34
2022/07/27 01:33:08;;;;;;;2.40;1.20;;;16.20;99.90;;;;;;5030561;28;20216;-34
2022/07/27 01:35:37;;;;;;;3.80;1.30;;;16.10;99.90;;;;;;5030530;28;20210;-34
2022/07/27 01:38:04;;;;;;;3.20;1.20;;;16.20;99.90;;;;;;5029934;28;20422;-34
2022/07/27 01:40:30;;;;;;;3.90;1.17;;;16.20;99.90;;;;;;5030497;28;20422;-34
2022/07/27 01:42:56;;;;;;;2.87;1.23;;;16.20;99.90;;;;;;5030489;28;20413;-34
2022/07/27 01:45:22;;;;;;;2.57;1.50;;;16.20;99.90;;;;;;5030270;28;20947;-34
2022/07/27 01:47:47;;;;;;;5.83;1.10;;;16.10;99.90;;;;;;5029971;28;20197;-34
2022/07/27 01:50:13;;;;;;;2.23;1.53;;;16.10;99.90;;;;;;5029493;28;20254;-34
2022/07/27 01:52:39;;;;;;;2.63;1.13;;;16.00;99.90;;;;;;5030391;28;20761;-34
2022/07/27 01:55:09;;;;;;;2.20;1.40;;;16.00;99.90;;;;;;5030392;28;20197;-34
2022/07/27 01:57:35;;;;;;;1.70;1.10;;;16.00;99.90;;;;;;5029602;28;20197;-34
2022/07/27 02:00:03;;;;;;;3.23;1.47;;;16.00;99.90;;;;;;5030148;28;20417;-34
2022/07/27 02:02:29;;;;;;;2.10;0.90;;;15.90;99.90;;;;;;5030163;28;20432;-34
2022/07/27 02:04:55;;;;;;;3.10;1.23;;;15.90;99.90;;;;;;5030180;28;20449;-34
2022/07/27 02:07:21;;;;;;;2.03;1.20;;;15.80;99.90;;;;;;5030789;28;20679;-34
2022/07/27 02:09:47;;;;;;;2.63;1.27;;;15.80;99.90;;;;;;5037848;28;20206;-34
2022/07/27 02:14:56;;;;;;;2.73;1.50;;;15.80;99.90;;;;;;5049822;28;20189;-34
2022/07/27 02:17:22;;;;;;;1.77;1.27;;;15.80;99.90;;;;;;5049441;28;20435;-34
2022/07/27 02:19:48;;;;;;;4.03;1.40;;;15.70;99.90;;;;;;5048407;28;20193;-34
2022/07/27 02:22:13;;;;;;;1.67;1.07;;;15.70;99.90;;;;;;5050859;28;20936;-34
2022/07/27 02:24:39;;;;;;;4.10;1.50;;;15.70;99.90;;;;;;5029951;28;20282;-34
2022/07/27 02:27:05;;;;;;;1.30;1.17;;;15.70;99.90;;;;;;5029148;28;20294;-34
2022/07/27 02:29:30;;;;;;;1.60;1.20;;;15.60;99.90;;;;;;5029774;28;20206;-33
2022/07/27 02:31:56;;;;;;;5.47;1.73;;;15.50;99.90;;;;;;5029912;28;20196;-34
2022/07/27 02:34:22;;;;;;;3.13;1.30;;;15.50;99.90;;;;;;5029926;28;20190;-33
2022/07/27 02:36:48;;;;;;;4.73;1.73;;;15.50;99.90;;;;;;5028022;28;20182;-34
2022/07/27 02:39:14;;;;;;;2.27;1.40;;;15.40;99.90;;;;;;5029728;28;20185;-34
2022/07/27 02:41:40;;;;;;;2.80;1.40;;;15.40;99.90;;;;;;5029722;28;20831;-34
2022/07/27 02:44:05;;;;;;;2.40;1.60;;;15.20;99.90;;;;;;5029713;28;20421;-34
2022/07/27 02:46:31;;;;;;;2.20;1.40;;;15.20;99.90;;;;;;5029661;28;20425;-33
2022/07/27 02:48:57;;;;;;;2.07;1.50;;;15.10;99.90;;;;;;5029174;28;20214;-34
2022/07/27 02:51:22;;;;;;;3.23;1.73;;;15.00;99.90;;;;;;5029751;28;20178;-33
2022/07/27 02:53:49;;;;;;;2.23;1.60;;;14.90;99.90;;;;;;5029690;28;20244;-34
2022/07/27 02:56:14;;;;;;;3.47;1.17;;;14.90;99.90;;;;;;5029400;28;20198;-33
2022/07/27 02:58:40;;;;;;;1.53;1.20;;;14.80;99.90;;;;;;5029281;28;21189;-34
2022/07/27 03:01:06;;;;;;;2.63;1.57;;;14.80;99.90;;;;;;5029763;28;20649;-34
2022/07/27 03:03:32;;;;;;;2.53;1.30;;;14.70;99.90;;;;;;5033624;28;20190;-34
2022/07/27 03:05:58;;;;;;;1.77;1.40;;;14.60;99.90;;;;;;5033407;28;20484;-34
2022/07/27 03:08:23;;;;;;;2.33;1.47;;;14.60;99.90;;;;;;5040755;28;20435;-34
2022/07/27 03:10:49;;;;;;;1.30;1.20;;;14.50;99.90;;;;;;5040297;28;20225;-33
2022/07/27 03:13:15;;;;;;;2.13;1.70;;;14.50;99.90;;;;;;5053436;28;20217;-34
2022/07/27 03:15:40;;;;;;;2.33;1.50;;;14.40;99.90;;;;;;5053157;28;20182;-33
2022/07/27 03:18:06;;;;;;;2.00;1.50;;;14.40;99.90;;;;;;5052572;28;20186;-33
2022/07/27 03:20:32;;;;;;;5.30;1.87;;;14.30;99.90;;;;;;5054775;28;20197;-34
2022/07/27 03:22:58;;;;;;;2.73;1.50;;;14.20;99.90;;;;;;5045770;28;20273;-34
2022/07/27 03:25:24;;;;;;;2.30;2.10;;;14.20;99.90;;;;;;5032897;28;20460;-33
2022/07/27 03:27:50;;;;;;;2.83;2.17;;;14.10;99.90;;;;;;5032439;28;20198;-34
2022/07/27 03:30:16;;;;;;;4.03;1.80;;;14.00;99.90;;;;;;5032963;28;20552;-33
2022/07/27 03:32:42;;;;;;;2.80;1.90;;;14.00;99.90;;;;;;5032913;28;20425;-34
2022/07/27 03:35:08;;;;;;;4.10;1.90;;;13.90;99.90;;;;;;5032861;28;20423;-33
2022/07/27 03:37:34;;;;;;;3.80;2.43;;;13.90;99.90;;;;;;5032230;28;20178;-33
2022/07/27 03:40:00;;;;;;;4.73;2.03;;;13.90;99.90;;;;;;5032742;28;20443;-33
2022/07/27 03:42:25;;;;;;;3.97;2.13;;;13.90;99.90;;;;;;5031518;28;20187;-33
2022/07/27 03:44:51;;;;;;;3.27;2.23;;;13.80;99.90;;;;;;5039401;28;20190;-33
2022/07/27 03:47:17;;;;;;;3.60;2.00;;;13.80;99.90;;;;;;5051997;28;20186;-33
2022/07/27 03:49:43;;;;;;;2.30;1.77;;;13.80;99.90;;;;;;5052531;28;20209;-33
2022/07/27 03:52:08;;;;;;;3.03;1.90;;;13.70;99.90;;;;;;5052646;28;20481;-33
2022/07/27 03:54:34;;;;;;;2.87;2.10;;;13.70;99.90;;;;;;5052304;28;20221;-33
2022/07/27 03:57:01;;;;;;;3.57;2.40;;;13.70;99.90;;;;;;5051987;28;20435;-33
2022/07/27 03:59:27;;;;;;;5.57;2.23;;;13.70;99.90;;;;;;5052290;28;20185;-33
2022/07/27 04:01:52;;;;;;;3.10;1.90;;;13.60;99.90;;;;;;5052647;28;20456;-33
2022/07/27 04:04:18;;;;;;;4.50;2.60;;;13.60;99.90;;;;;;5052272;28;20969;-33
2022/07/27 04:06:44;;;;;;;4.20;1.80;;;13.60;99.90;;;;;;5051641;28;20258;-33
2022/07/27 04:09:10;;;;;;;2.70;1.93;;;13.70;99.90;;;;;;5044935;28;20213;-33
2022/07/27 04:11:36;;;;;;;4.17;2.43;;;13.70;99.90;;;;;;5045701;28;20193;-33
2022/07/27 04:14:02;;;;;;;5.20;2.07;;;13.70;99.90;;;;;;5051049;28;20182;-33
2022/07/27 04:16:28;;;;;;;6.33;2.13;;;13.70;99.90;;;;;;5052173;28;21012;-34
2022/07/27 04:18:53;;;;;;;2.97;2.17;;;13.70;99.90;;;;;;5049955;28;21055;-33
2022/07/27 04:21:19;;;;;;;3.70;2.50;;;13.80;99.90;;;;;;5061853;28;20223;-33
2022/07/27 04:23:45;;;;;;;3.03;1.97;;;13.70;99.90;;;;;;5033186;28;20198;-34
2022/07/27 04:26:11;;;;;;;5.50;3.20;;;13.70;99.90;;;;;;5031981;28;20278;-33
2022/07/27 04:28:36;;;;;;;5.60;2.87;;;13.70;99.90;;;;;;5031321;28;20631;-34
2022/07/27 04:31:02;;;;;;;3.00;2.70;;;13.90;99.90;;;;;;5031955;28;20178;-33
2022/07/27 04:33:28;;;;;;;6.57;2.70;;;14.00;99.90;;;;;;5031843;28;20221;-34
2022/07/27 04:35:54;;;;;;;5.03;3.17;;;14.10;99.90;;;;;;5031716;28;20330;-34
2022/07/27 04:38:20;;;;;;;7.73;3.53;;;14.30;99.90;;;;;;5031078;28;20187;-33
2022/07/27 04:40:45;;;;;;;6.30;3.47;;;14.30;99.90;;;;;;5032594;28;20927;-33
2022/07/27 04:43:11;;;;;;;4.30;2.83;;;14.40;99.90;;;;;;5043673;28;20813;-33
2022/07/27 04:45:37;;;;;;;7.33;3.10;;;14.40;99.90;;;;;;5051353;28;20198;-33
2022/07/27 04:48:08;;;;;;;4.53;3.27;;;14.40;99.90;;;;;;5040727;28;20453;-33
2022/07/27 04:50:44;;;;;;;4.73;3.90;;;14.50;99.90;;;;;;5031532;28;20624;-34
2022/07/27 04:53:11;;;;;;;3.77;3.40;;;14.50;99.90;;;;;;5037587;28;20520;-33
2022/07/27 04:55:40;;;;;;;5.50;3.80;;;14.60;99.90;;;;;;5048621;28;20420;-33
2022/07/27 04:58:06;;;;;;;4.13;3.43;;;14.50;99.90;;;;;;5044777;28;20898;-33
2022/07/27 05:00:32;;;;;;;4.40;3.60;;;14.60;99.90;;;;;;5045512;28;20439;-33
2022/07/27 05:02:57;;;;;;;13.63;4.30;;;14.60;99.90;;;;;;5038481;28;20340;-33
2022/07/27 05:05:23;;;;;;;5.77;3.40;;;14.60;99.90;;;;;;5043910;28;20202;-33
2022/07/27 05:07:49;;;;;;;5.93;3.27;;;14.60;99.90;;;;;;5048296;28;20182;-34
2022/07/27 05:10:15;;;;;;;5.47;2.83;;;14.60;99.90;;;;;;5037456;28;20214;-34
2022/07/27 05:12:41;;;;;;;4.73;3.10;;;14.70;99.90;;;;;;5051083;28;20439;-33
2022/07/27 05:15:07;;;;;;;6.07;2.83;;;14.80;99.90;;;;;;5043249;28;20998;-33
2022/07/27 05:17:34;;;;;;;2.80;2.60;;;14.90;99.90;;;;;;5030338;28;20193;-34
2022/07/27 05:20:00;;;;;;;2.97;2.60;;;14.90;99.90;;;;;;5029281;28;20479;-33
2022/07/27 05:22:26;;;;;;;3.53;2.30;;;14.90;99.90;;;;;;5053099;28;20448;-34
2022/07/27 05:24:51;;;;;;;3.33;2.30;;;15.00;99.90;;;;;;5044104;28;20432;-34
2022/07/27 05:27:17;;;;;;;5.93;2.23;;;15.00;99.90;;;;;;5044146;28;20204;-33
2022/07/27 05:29:43;;;;;;;2.60;2.30;;;15.00;99.90;;;;;;5034760;28;20305;-33
2022/07/27 05:32:08;;;;;;;5.10;2.20;;;15.00;99.90;;;;;;5030891;28;20198;-34
2022/07/27 05:34:34;;;;;;;2.93;2.23;;;15.10;99.90;;;;;;5030310;28;20740;-33
2022/07/27 05:37:00;;;;;;;4.00;2.00;;;15.10;99.90;;;;;;5030139;28;20321;-33
2022/07/27 05:39:26;;;;;;;5.77;2.83;;;15.20;99.90;;;;;;5031029;28;20190;-33
2022/07/27 05:41:52;;;;;;;3.80;2.70;;;15.20;99.90;;;;;;5039992;28;20200;-33
2022/07/27 05:44:17;;;;;;;5.57;2.70;;;15.30;99.90;;;;;;5050354;28;20546;-33
2022/07/27 05:46:43;;;;;;;6.83;3.10;;;15.40;99.90;;;;;;5049845;28;20200;-33
2022/07/27 05:49:09;;;;;;;5.47;3.60;;;15.40;99.90;;;;;;5049955;28;20218;-33
2022/07/27 05:51:35;;;;;;;2.40;1.87;;;15.50;99.90;;;;;;5050291;28;20790;-33
2022/07/27 05:54:00;;;;;;;6.23;2.47;;;15.60;99.90;;;;;;5050423;28;20193;-33
2022/07/27 05:56:26;;;;;;;4.10;2.20;;;15.60;99.90;;;;;;5050178;28;20428;-33
2022/07/27 05:58:52;;;;;;;4.57;1.83;;;15.70;99.90;;;;;;5031592;28;20186;-33
2022/07/27 06:01:18;;;;;;;3.50;2.10;;;15.90;99.90;;;;;;5043418;28;20282;-33
2022/07/27 06:03:44;;;;;;;1.77;1.63;;;16.10;99.90;;;;;;5033316;28;20494;-33
2022/07/27 06:08:54;;;;;;;2.40;1.43;;;16.50;99.90;;;;;;5038501;28;20237;-33
2022/07/27 06:11:20;;;;;;;4.43;1.70;;;16.60;99.90;;;;;;5041410;28;20466;-33
2022/07/27 06:13:46;;;;;;;3.17;1.67;;;16.90;99.90;;;;;;5050113;28;20735;-33
2022/07/27 06:16:12;;;;;;;4.10;1.50;;;17.10;99.90;;;;;;5049580;28;20435;-34
2022/07/27 06:18:37;;;;;;;3.57;1.43;;;17.30;99.90;;;;;;5048052;28;20197;-34
2022/07/27 06:21:04;;;;;;;4.23;1.47;;;17.40;99.90;;;;;;5057563;28;20189;-33
2022/07/27 06:23:30;;;;;;;4.43;1.47;;;17.40;99.90;;;;;;5033686;28;20183;-34
2022/07/27 06:25:56;;;;;;;2.53;1.60;;;17.40;99.90;;;;;;5030111;28;20432;-33
2022/07/27 06:28:22;;;;;;;5.30;1.50;;;17.30;99.90;;;;;;5029285;28;20190;-33
2022/07/27 06:30:48;;;;;;;5.57;2.23;;;17.30;99.90;;;;;;5029657;28;20421;-33
2022/07/27 06:33:14;;;;;;;3.97;1.80;;;17.40;99.90;;;;;;5029797;28;20443;-33
2022/07/27 06:35:41;;;;;;;3.60;1.33;;;17.50;99.90;;;;;;5030449;28;20842;-33
2022/07/27 06:38:07;;;;;;;6.57;1.60;;;17.60;99.90;;;;;;5035570;28;20503;-34
2022/07/27 06:40:34;;;;;;;2.20;1.37;;;17.80;99.90;;;;;;5036363;28;20918;-33
2022/07/27 06:43:00;;;;;;;2.90;1.57;;;17.90;99.90;;;;;;5036354;28;20527;-33
2022/07/27 06:45:26;;;;;;;2.93;1.40;;;17.90;99.90;;;;;;5036280;28;20519;-33
2022/07/27 06:47:51;;;;;;;1.73;1.30;;;18.00;99.90;;;;;;5035615;28;20668;-33
2022/07/27 06:50:19;;;;;;;1.77;1.10;;;18.10;99.90;;;;;;5035000;28;20473;-34
2022/07/27 06:52:45;;;;;;;2.63;1.27;;;18.10;99.90;;;;;;5044110;28;20253;-33
2022/07/27 06:55:12;;;;;;;3.93;1.17;;;18.10;99.90;;;;;;5044702;28;20420;-34
2022/07/27 06:57:37;;;;;;;2.70;1.20;;;18.10;99.90;;;;;;5050747;28;20424;-33
2022/07/27 07:00:05;;;;;;;3.83;1.10;;;18.00;99.90;;;;;;5044783;28;20826;-34
2022/07/27 07:02:31;;;;;;;1.90;1.10;;;17.90;99.90;;;;;;5034968;28;20221;-33
2022/07/27 07:04:58;;;;;;;3.80;1.10;;;18.00;99.90;;;;;;5046388;28;20470;-33
2022/07/27 07:07:23;;;;;;;1.87;0.73;;;18.20;99.90;;;;;;5048688;28;20683;-33
2022/07/27 07:09:49;;;;;;;1.60;1.03;;;18.30;99.90;;;;;;5049372;28;20453;-34
2022/07/27 07:12:17;;;;;;;3.73;1.30;;;18.50;99.90;;;;;;5037438;28;20235;-34
2022/07/27 07:14:44;;;;;;;1.47;0.73;;;18.50;99.90;;;;;;5036636;28;20182;-33
2022/07/27 07:17:10;;;;;;;4.33;1.40;;;18.50;99.90;;;;;;5054896;28;20428;-34
2022/07/27 07:19:36;;;;;;;2.80;1.00;;;18.40;99.90;;;;;;5055112;28;20436;-33
2022/07/27 07:22:01;;;;;;;5.77;1.13;;;18.30;99.90;;;;;;5060116;28;20186;-33
2022/07/27 07:24:28;;;;;;;2.53;0.90;;;18.20;99.90;;;;;;5036168;28;20186;-34
2022/07/27 07:26:55;;;;;;;2.63;1.30;;;18.00;99.90;;;;;;5035133;28;20190;-34
2022/07/27 07:29:20;;;;;;;5.80;1.13;;;17.80;99.90;;;;;;5039173;28;20880;-34
2022/07/27 07:31:46;;;;;;;7.27;2.70;;;17.70;99.90;;;;;;5047834;28;20436;-33
2022/07/27 07:34:12;;;;;;;1.00;0.90;;;17.90;99.90;;;;;;5053125;28;20192;-34
2022/07/27 07:36:38;;;;;;;4.63;1.10;;;18.00;99.90;;;;;;5050107;28;20650;-34
2022/07/27 07:39:03;;;;;;;2.77;1.27;;;18.10;99.90;;;;;;5035804;28;20228;-34
2022/07/27 07:41:29;;;;;;;2.63;0.90;;;18.20;99.90;;;;;;5035688;28;20389;-34
2022/07/27 07:43:55;;;;;;;2.50;0.80;;;18.20;99.90;;;;;;5035831;28;20194;-34
2022/07/27 07:46:21;;;;;;;1.50;0.70;;;18.20;99.90;;;;;;5035776;28;20279;-33
2022/07/27 07:48:46;;;;;;;2.03;0.80;;;18.30;99.90;;;;;;5032386;28;20228;-33
2022/07/27 07:51:12;;;;;;;1.33;0.80;;;18.30;99.90;;;;;;5031325;28;20228;-34
2022/07/27 07:53:38;;;;;;;1.10;0.80;;;18.20;99.90;;;;;;5032721;28;20194;-34
2022/07/27 07:56:04;;;;;;;6.57;1.93;;;18.10;99.90;;;;;;5032552;28;20198;-34
2022/07/27 07:58:30;;;;;;;2.67;1.57;;;18.00;99.90;;;;;;5031903;28;20199;-34
2022/07/27 08:00:56;;;;;;;3.63;0.90;;;18.00;99.90;;;;;;5032329;28;20425;-34
2022/07/27 08:03:22;;;;;;;2.43;0.90;;;18.20;99.90;;;;;;5032698;28;20440;-34
2022/07/27 08:05:48;;;;;;;1.10;0.80;;;18.40;99.90;;;;;;5032188;28;20444;-34
2022/07/27 08:08:14;;;;;;;1.70;1.10;;;18.40;99.90;;;;;;5040503;28;20472;-33
2022/07/27 08:10:39;;;;;;;2.47;1.00;;;18.40;99.90;;;;;;5038572;28;20468;-34
2022/07/27 08:13:05;;;;;;;2.67;1.07;;;18.30;99.90;;;;;;5052255;28;20519;-33
2022/07/27 08:15:31;;;;;;;3.43;0.97;;;18.40;99.90;;;;;;5052074;28;20185;-34
2022/07/27 08:17:57;;;;;;;1.43;0.60;;;18.50;99.90;;;;;;5051688;28;20221;-34
2022/07/27 08:20:25;;;;;;;1.07;0.60;;;18.50;99.90;;;;;;5054034;28;20242;-34
2022/07/27 08:22:51;;;;;;;1.03;0.67;;;18.50;99.90;;;;;;5046952;28;20202;-34
2022/07/27 08:25:17;;;;;;;3.80;1.37;;;18.50;99.90;;;;;;5031889;28;20924;-34
2022/07/27 08:27:42;;;;;;;1.20;0.67;;;18.60;99.90;;;;;;5031243;28;20194;-34
2022/07/27 08:30:09;;;;;;;1.37;0.70;;;18.60;99.90;;;;;;5032138;28;20222;-34
2022/07/27 08:32:52;;;;;;;1.43;0.80;;;18.60;99.90;;;;;;5031879;28;20182;-34
2022/07/27 08:35:19;;;;;;;2.40;1.07;;;18.60;99.90;;;;;;5039924;28;20752;-34
2022/07/27 08:37:44;;;;;;;1.80;0.83;;;18.60;99.90;;;;;;5050801;28;21055;-33
2022/07/27 08:40:11;;;;;;;4.03;1.70;;;18.60;99.90;;;;;;5051964;28;20436;-34
2022/07/27 08:42:40;;;;;;;2.30;0.80;;;18.70;99.90;;;;;;5051589;28;20200;-34
2022/07/27 08:45:08;;;;;;;1.50;0.73;;;18.70;99.90;;;;;;5051670;28;20515;-34
2022/07/27 08:47:34;;;;;;;2.80;0.70;;;18.80;99.90;;;;;;5050946;28;20424;-34
2022/07/27 08:50:01;;;;;;;1.47;1.37;;;18.90;99.50;;;;;;5051323;28;20560;-34
2022/07/27 08:52:27;;;;;;;1.30;0.90;;;19.00;98.90;;;;;;5051280;28;20437;-34
2022/07/27 08:54:53;;;;;;;1.27;1.03;;;19.10;99.10;;;;;;5051402;28;20970;-34
2022/07/27 08:57:20;;;;;;;4.97;0.77;;;19.20;98.70;;;;;;5050826;28;20498;-34
2022/07/27 08:59:45;;;;;;;1.10;0.60;;;19.20;99.10;;;;;;5050806;28;20526;-34
2022/07/27 09:02:13;;;;;;;2.50;1.10;;;19.40;99.10;;;;;;5051331;28;20507;-34
2022/07/27 09:04:40;;;;;;;1.20;0.83;;;19.50;98.80;;;;;;5049865;28;20217;-34
2022/07/27 09:07:05;;;;;;;3.50;0.97;;;19.50;99.30;;;;;;5050465;28;20497;-34
2022/07/27 09:09:44;;;;;;;2.20;0.90;;;19.50;99.50;;;;;;5041211;28;20477;-34
2022/07/27 09:12:10;;;;;;;2.40;0.93;;;19.40;99.70;;;;;;5049630;28;20186;-34
2022/07/27 09:14:39;;;;;;;1.77;0.60;;;19.40;99.90;;;;;;5049825;28;20420;-34
2022/07/27 09:17:25;;;;;;;0.90;0.60;;;19.30;99.40;;;;;;5050324;28;20452;-34
2022/07/27 09:19:56;;;;;;;1.20;0.80;;;19.30;99.60;;;;;;5050882;28;20427;-34
2022/07/27 09:22:53;;;;;;;1.70;0.70;;;19.20;99.30;;;;;;5051642;28;20967;-34
2022/07/27 09:25:25;;;;;;;1.93;0.83;;;19.20;99.00;;;;;;5030894;28;20921;-34
2022/07/27 09:27:57;;;;;;;2.07;1.10;;;19.20;98.80;;;;;;5029763;28;20843;-34
2022/07/27 09:30:24;;;;;;;2.07;0.87;;;19.00;98.30;;;;;;5030670;28;20476;-34
2022/07/27 09:33:05;;;;;;;2.10;1.03;;;18.90;99.00;;;;;;5030569;28;20827;-34
2022/07/27 09:35:33;;;;;;;14.30;2.23;;;18.90;99.50;;;;;;5029358;28;20432;-34
2022/07/27 09:38:20;;;;;;;1.07;0.67;;;18.90;99.20;;;;;;5029942;28;21073;-34
2022/07/27 09:40:48;;;;;;;1.17;1.00;;;18.90;99.00;;;;;;5030568;28;20432;-34
2022/07/27 09:43:14;;;;;;;1.73;1.13;;;18.90;99.10;;;;;;5029159;28;20482;-34
2022/07/27 09:45:43;;;;;;;1.60;1.50;;;18.90;99.80;;;;;;5030508;28;20427;-34
2022/07/27 09:48:13;;;;;;;3.57;1.77;;;19.00;99.80;;;;;;5029914;28;20421;-34
2022/07/27 09:50:45;;;;;;;3.40;2.20;;;19.00;99.80;;;;;;5030143;28;20500;-34
2022/07/27 09:53:20;;;;;;;2.10;1.90;;;19.10;99.90;;;;;;5030420;28;20435;-34
2022/07/27 09:55:59;;;;;;;4.20;2.10;;;19.20;99.90;;;;;;5030214;28;20962;-34
2022/07/27 09:58:46;;;;;;;2.60;1.90;;;19.20;99.90;;;;;;5029713;28;20752;-34
2022/07/27 10:01:13;;;;;;;2.70;1.97;;;19.30;99.90;;;;;;5037989;28;20511;-34
2022/07/27 10:03:41;;;;;;;1.80;1.70;;;19.40;99.40;;;;;;5050138;28;20439;-34
2022/07/27 10:06:08;;;;;;;2.87;2.17;;;19.40;98.70;;;;;;5049845;28;20543;-34
2022/07/27 10:08:36;;;;;;;2.27;2.03;;;19.40;99.50;;;;;;5047336;28;20431;-34
2022/07/27 10:11:02;;;;;;;2.90;1.77;;;19.40;99.40;;;;;;5038155;28;20477;-34
2022/07/27 10:13:27;;;;;;;2.50;1.40;;;19.50;99.60;;;;;;5049965;28;20416;-34
2022/07/27 10:15:54;;;;;;;1.90;1.30;;;19.60;99.90;;;;;;5049533;28;20193;-34
2022/07/27 10:18:47;;;;;;;2.80;1.13;;;19.60;99.90;;;;;;5049174;28;20247;-34
2022/07/27 10:21:13;;;;;;;4.27;1.60;;;19.70;99.90;;;;;;5052932;28;20514;-34
2022/07/27 10:23:39;;;;;;;4.73;1.27;;;19.80;99.30;;;;;;5030695;28;20966;-34
2022/07/27 10:26:19;;;;;;;1.53;1.40;;;19.80;99.20;;;;;;5021788;28;21015;-34
2022/07/27 10:29:05;;;;;;;2.03;1.50;;;19.80;99.40;;;;;;5029197;28;20188;-34
2022/07/27 10:31:36;;;;;;;3.60;1.07;;;19.70;98.80;;;;;;5029873;28;20429;-34
2022/07/27 10:34:05;;;;;;;1.67;1.00;;;19.60;98.80;;;;;;5028487;28;20433;-34
2022/07/27 10:36:33;;;;;;;2.30;1.13;;;19.80;98.80;;;;;;5029472;28;20436;-34
2022/07/27 10:39:07;;;;;;;2.00;0.93;;;19.80;98.00;;;;;;5029562;28;20968;-34
2022/07/27 10:41:38;;;;;;;6.43;1.17;;;19.90;97.40;;;;;;5036643;28;20424;-34
2022/07/27 10:44:14;;;;;;;1.93;0.90;;;19.90;97.60;;;;;;5049565;28;20428;-34
2022/07/27 10:46:52;;;;;;;2.10;1.00;;;19.90;97.80;;;;;;5049114;28;20462;-34
2022/07/27 10:49:36;;;;;;;4.83;1.10;;;20.00;97.50;;;;;;5049334;28;20463;-34
2022/07/27 10:52:03;;;;;;;2.93;0.90;;;20.00;97.50;;;;;;5045518;28;20420;-34
2022/07/27 10:54:37;;;;;;;2.00;1.00;;;20.00;97.70;;;;;;5029661;28;20461;-34
2022/07/27 10:57:05;;;;;;;2.13;1.60;;;20.10;97.30;;;;;;5028923;28;20989;-34
2022/07/27 10:59:43;;;;;;;1.30;0.73;;;20.10;96.00;;;;;;5028130;28;20467;-34
2022/07/27 11:02:13;;;;;;;2.43;1.43;;;20.20;95.80;;;;;;5029579;28;20467;-34
2022/07/27 11:04:46;;;;;;;3.67;1.40;;;20.30;96.80;;;;;;5029464;28;20460;-34
2022/07/27 11:07:16;;;;;;;2.23;1.17;;;20.50;95.80;;;;;;5028943;28;20508;-34
2022/07/27 11:09:42;;;;;;;2.00;1.13;;;20.60;96.00;;;;;;5037492;28;20465;-34
2022/07/27 11:12:10;;;;;;;2.63;1.27;;;20.70;95.80;;;;;;5047207;28;20958;-34
2022/07/27 11:14:50;;;;;;;1.77;1.10;;;20.60;95.40;;;;;;5049394;28;20429;-34
2022/07/27 11:17:19;;;;;;;2.20;1.77;;;20.50;95.30;;;;;;5048696;28;20412;-34
2022/07/27 11:19:53;;;;;;;6.80;1.50;;;20.30;94.30;;;;;;5048455;28;20473;-34
2022/07/27 11:22:34;;;;;;;5.60;1.43;;;20.10;94.80;;;;;;5048820;28;20830;-34
2022/07/27 11:25:03;;;;;;;2.20;1.10;;;20.00;95.30;;;;;;5035689;28;20467;-34
2022/07/27 11:27:29;;;;;;;1.93;1.00;;;20.00;96.20;;;;;;5037001;28;20421;-34
2022/07/27 11:29:56;;;;;;;1.00;0.90;;;19.90;95.60;;;;;;5045311;28;21035;-34
2022/07/27 11:32:22;;;;;;;2.63;1.20;;;19.80;95.90;;;;;;5053545;28;20597;-34
2022/07/27 11:34:48;;;;;;;3.07;1.07;;;19.90;96.10;;;;;;5031663;28;20429;-34
2022/07/27 11:37:19;;;;;;;2.17;1.20;;;19.80;96.20;;;;;;5030913;28;20445;-34
2022/07/27 11:39:56;;;;;;;1.17;1.07;;;19.90;96.10;;;;;;5032958;28;20461;-35
2022/07/27 11:42:22;;;;;;;2.00;1.30;;;19.80;95.30;;;;;;5032954;28;20436;-34
2022/07/27 11:44:48;;;;;;;2.93;1.00;;;19.80;95.00;;;;;;5032779;28;20440;-34
2022/07/27 11:47:18;;;;;;;2.70;1.43;;;19.80;95.10;;;;;;5031037;28;20873;-34
2022/07/27 11:49:44;;;;;;;1.40;1.00;;;20.00;96.30;;;;;;5032674;28;21214;-34
2022/07/27 11:52:10;;;;;;;3.13;1.20;;;20.20;96.70;;;;;;5031324;28;20433;-34
2022/07/27 11:54:40;;;;;;;1.10;1.00;;;20.30;95.50;;;;;;5031219;28;20190;-34
2022/07/27 11:57:15;;;;;;;2.67;1.20;;;20.40;95.60;;;;;;5031968;28;20425;-34
2022/07/27 11:59:43;;;;;;;2.60;1.27;;;20.50;95.50;;;;;;5032510;28;20498;-34
2022/07/27 12:02:16;;;;;;;2.70;1.10;;;20.60;95.70;;;;;;5032348;28;20516;-34
2022/07/27 12:04:43;;;;;;;7.17;1.40;;;20.60;95.30;;;;;;5032596;28;20459;-34
2022/07/27 12:07:16;;;;;;;1.90;1.20;;;20.60;95.50;;;;;;5031620;28;20448;-34
2022/07/27 12:09:53;;;;;;;3.37;1.37;;;20.50;95.50;;;;;;5032395;28;20468;-34
2022/07/27 12:12:24;;;;;;;2.10;1.00;;;20.50;95.70;;;;;;5034890;28;20519;-33
2022/07/27 12:15:01;;;;;;;2.30;1.40;;;20.60;96.30;;;;;;5046048;28;20424;-34
2022/07/27 12:17:28;;;;;;;1.80;1.13;;;20.60;95.40;;;;;;5050197;28;20448;-34
2022/07/27 12:20:13;;;;;;;1.80;1.23;;;20.50;94.30;;;;;;5051157;28;20557;-34
2022/07/27 12:22:43;;;;;;;2.30;1.47;;;20.60;94.30;;;;;;5049332;28;20432;-34
2022/07/27 12:25:18;;;;;;;4.10;1.53;;;20.50;95.10;;;;;;5033132;28;20437;-34
2022/07/27 12:28:05;;;;;;;1.83;1.30;;;20.50;94.90;;;;;;5033923;28;20535;-34
2022/07/27 12:30:32;;;;;;;2.23;1.37;;;20.60;95.00;;;;;;5041490;28;20476;-34
2022/07/27 12:32:59;;;;;;;3.13;1.37;;;20.80;94.40;;;;;;5039282;28;20976;-33
2022/07/27 12:35:27;;;;;;;4.53;1.60;;;20.90;93.50;;;;;;5046594;28;20416;-34
2022/07/27 12:37:59;;;;;;;9.50;1.83;;;21.10;94.30;;;;;;5035118;28;20448;-33
2022/07/27 12:40:26;;;;;;;3.33;1.60;;;21.20;93.60;;;;;;5038214;28;20436;-34
2022/07/27 12:43:00;;;;;;;5.40;1.60;;;21.40;95.20;;;;;;5045717;28;20788;-33
2022/07/27 12:45:32;;;;;;;4.03;1.80;;;21.60;95.70;;;;;;5039984;28;20897;-34
2022/07/27 12:48:36;;;;;;;2.83;1.30;;;21.90;94.20;;;;;;5041453;28;20424;-34
2022/07/27 12:51:04;;;;;;;4.03;1.30;;;22.00;93.90;;;;;;5041810;28;20428;-35
2022/07/27 12:53:31;;;;;;;2.60;1.40;;;22.10;93.90;;;;;;5044316;28;20420;-34
2022/07/27 12:56:00;;;;;;;2.60;1.40;;;22.10;91.60;;;;;;5032843;28;20508;-34